Flight Track Log - Related Links

Times and Time Zones

All times are in EDT time to prevent confusion due to time zone crossing. See the KAL223 flight status page for this flight to view local times or setup timezone preferences in your user account.

Time Position Orientation Groundspeed Altitude Reporting Facility
EDT Latitude Longitude Course Direction KTS MPH feet Rate Location/Type
Wed 01:48:47 AM 41.9950 -87.9390 318° Northwest 174 200 1,400  Level FlightAware ADS-B
Wed 01:49:12 AM 42.0120 -87.9580 320° Northwest 174 200 2,700 2,800 Climbing FlightAware ADS-B
Wed 01:49:32 AM 42.0230 -87.9730 315° West 176 203 3,500 2,200 Climbing FlightAware ADS-B
Wed 01:49:42 AM 42.0260 -87.9840 290° West 181 208 3,800 1,600 Climbing FlightAware ADS-B
Wed 01:49:47 AM 42.0260 -87.9880 270° West 184 212 3,900 1,200 Climbing FlightAware ADS-B
Wed 01:50:27 AM 42.0220 -88.0410 264° West 238 274 4,700 1,477 Climbing FlightAware ADS-B
Wed 01:50:52 AM 42.0190 -88.0830 265° West 268 308 5,500 2,550 Climbing FlightAware ADS-B
Wed 01:51:07 AM 42.0180 -88.1110 267° West 273 314 6,400 3,333 Climbing FlightAware ADS-B
Wed 01:51:37 AM 42.0150 -88.1570 265° West 276 318 8,000 3,300 Climbing FlightAware ADS-B
Wed 01:52:07 AM 42.0120 -88.2110 266° West 283 326 9,700 2,571 Climbing FlightAware ADS-B
Wed 01:52:47 AM 42.0050 -88.2820 262° West 320 368 11,000 2,100 Climbing FlightAware ADS-B
Wed 01:53:27 AM 41.9900 -88.3700 257° West 361 415 12,500 2,800 Climbing FlightAware ADS-B
Wed 01:54:02 AM 41.9760 -88.4460 256° West 371 427 14,500 3,741 Climbing FlightAware ADS-B
Wed 01:54:52 AM 41.9530 -88.5620 255° West 387 445 17,800 3,667 Climbing FlightAware ADS-B
Wed 01:55:32 AM 41.9350 -88.6560 256° West 400 460 20,000 3,247 Climbing FlightAware ADS-B
Wed 01:56:17 AM 41.9130 -88.7700 255° West 415 478 22,400 2,965 Climbing FlightAware ADS-B
Wed 01:56:57 AM 41.8940 -88.8680 255° West 427 491 24,200 2,753 Climbing FlightAware ADS-B
Wed 01:57:42 AM 41.8710 -88.9830 255° West 441 507 26,300 2,682 Climbing FlightAware ADS-B
Wed 01:58:22 AM 41.8500 -89.0930 256° West 451 519 28,000 2,400 Climbing FlightAware ADS-B
Wed 01:59:02 AM 41.8290 -89.1990 255° West 461 531 29,500 2,259 Climbing FlightAware ADS-B
Wed 01:59:47 AM 41.8040 -89.3280 255° West 473 544 31,200 2,188 Climbing FlightAware ADS-B
Wed 02:00:27 AM 41.7810 -89.4420 255° West 479 551 32,600 2,541 Climbing FlightAware ADS-B
Wed 02:01:12 AM 41.7560 -89.5670 255° West 470 541 34,800 2,682 Climbing FlightAware ADS-B
Wed 02:01:52 AM 41.7330 -89.6810 255° West 465 535 36,400 2,025 Climbing FlightAware ADS-B
Wed 02:02:32 AM 41.7110 -89.7930 255° West 469 540 37,500 1,129 Climbing FlightAware ADS-B
Wed 02:03:17 AM 41.6850 -89.9220 255° West 474 545 38,000 353 Climbing FlightAware ADS-B
Wed 02:03:57 AM 41.6620 -90.0350 255° West 472 543 38,000  Level FlightAware ADS-B
Wed 02:04:42 AM 41.6370 -90.1560 255° West 469 540 38,000  Level FlightAware ADS-B
Wed 02:05:22 AM 41.6130 -90.2700 254° West 466 536 38,000  Level FlightAware ADS-B
Wed 02:06:02 AM 41.5910 -90.3780 255° West 463 533 38,000  Level FlightAware ADS-B
Wed 02:06:42 AM 41.5680 -90.4880 254° West 460 529 38,000  Level FlightAware ADS-B
Wed 02:07:27 AM 41.5420 -90.6130 255° West 456 525 38,000  Level FlightAware ADS-B
Wed 02:08:07 AM 41.5200 -90.7160 254° West 456 525 38,000  Level FlightAware ADS-B
Wed 02:08:52 AM 41.4930 -90.8390 254° West 455 524 38,000  Level FlightAware ADS-B
Wed 02:09:32 AM 41.4710 -90.9450 255° West 455 524 38,000  Level FlightAware ADS-B
Wed 02:10:17 AM 41.4440 -91.0710 254° West 454 522 38,000  Level FlightAware ADS-B
Wed 02:10:57 AM 41.4200 -91.1810 254° West 457 526 38,000  Level FlightAware ADS-B
Wed 02:11:42 AM 41.3940 -91.3010 254° West 459 528 38,000  Level FlightAware ADS-B
Wed 02:12:22 AM 41.3710 -91.4070 254° West 461 531 38,000  Level FlightAware ADS-B
Wed 02:13:02 AM 41.3470 -91.5160 254° West 462 532 38,000  Level FlightAware ADS-B
Wed 02:13:47 AM 41.3200 -91.6360 253° West 462 532 38,000  Level FlightAware ADS-B
Wed 02:14:27 AM 41.2960 -91.7470 254° West 460 529 38,000  Level FlightAware ADS-B
Wed 02:15:12 AM 41.2680 -91.8720 253° West 456 525 38,000  Level FlightAware ADS-B
Wed 02:15:52 AM 41.2440 -91.9760 253° West 452 520 38,000  Level FlightAware ADS-B
Wed 02:16:32 AM 41.2210 -92.0820 254° West 449 517 38,000  Level FlightAware ADS-B
Wed 02:17:17 AM 41.1930 -92.2030 253° West 447 514 38,000  Level FlightAware ADS-B
Wed 02:17:57 AM 41.1700 -92.3050 253° West 445 512 38,000  Level FlightAware ADS-B
Wed 02:18:42 AM 41.1430 -92.4230 253° West 444 511 38,000  Level FlightAware ADS-B
Wed 02:19:22 AM 41.1180 -92.5290 253° West 443 510 38,000  Level FlightAware ADS-B
Wed 02:20:02 AM 41.0940 -92.6330 253° West 442 509 38,000  Level FlightAware ADS-B
Wed 02:20:42 AM 41.0700 -92.7360 253° West 441 507 38,000  Level FlightAware ADS-B
Wed 02:21:27 AM 41.0440 -92.8500 253° West 441 507 38,000  Level FlightAware ADS-B
Wed 02:22:07 AM 41.0200 -92.9530 253° West 441 507 38,000  Level FlightAware ADS-B
Wed 02:22:52 AM 40.9920 -93.0720 253° West 442 509 38,000  Level FlightAware ADS-B
Wed 02:23:47 AM 40.9590 -93.2110 253° West 442 509 38,000  Level FlightAware ADS-B
Wed 02:24:27 AM 40.9340 -93.3170 253° West 444 511 38,000  Level FlightAware ADS-B
Wed 02:25:02 AM 40.9130 -93.4050 253° West 445 512 38,000  Level FlightAware ADS-B
Wed 02:25:47 AM 40.8870 -93.5080 252° West 445 512 38,000  Level FlightAware ADS-B
Wed 02:26:27 AM 40.8590 -93.6250 252° West 446 513 38,000  Level FlightAware ADS-B
Wed 02:27:17 AM 40.8300 -93.7470 253° West 446 513 38,000  Level FlightAware ADS-B
Wed 02:28:07 AM 40.7990 -93.8740 252° West 447 514 38,000  Level FlightAware ADS-B
Wed 02:28:57 AM 40.7710 -93.9840 251° West 447 514 38,000  Level FlightAware ADS-B
Wed 02:29:52 AM 40.7290 -94.1600 253° West 449 517 38,000  Level FlightAware ADS-B
Wed 02:30:32 AM 40.7050 -94.2570 252° West 450 518 38,000  Level FlightAware ADS-B
Wed 02:31:17 AM 40.6740 -94.3790 252° West 451 519 38,000  Level FlightAware ADS-B
Wed 02:31:52 AM 40.6530 -94.4610 251° West 451 519 38,000  Level FlightAware ADS-B
Wed 02:32:32 AM 40.6300 -94.5500 251° West 451 519 38,000  Level FlightAware ADS-B
Wed 02:33:32 AM 40.5880 -94.7220 252° West 449 517 38,000  Level FlightAware ADS-B
Wed 02:34:12 AM 40.5650 -94.8100 251° West 449 517 38,000  Level FlightAware ADS-B
Wed 02:34:52 AM 40.5350 -94.9320 252° West 447 514 38,000  Level FlightAware ADS-B
Wed 02:35:37 AM 40.5070 -95.0370 251° West 447 514 38,000  Level FlightAware ADS-B
Wed 02:36:17 AM 40.4840 -95.1240 251° West 447 514 38,000  Level FlightAware ADS-B
Wed 02:36:57 AM 40.4610 -95.2120 251° West 447 514 38,000  Level FlightAware ADS-B
Wed 02:37:47 AM 40.4330 -95.3210 251° West 447 514 38,000  Level FlightAware ADS-B
Wed 02:38:37 AM 40.5320 -94.9430 71° East 448 516 38,000  Level FlightAware ADS-B
Wed 02:39:27 AM 40.5050 -95.0530 252° West 448 516 38,000  Level FlightAware ADS-B
Wed 02:40:07 AM 40.4830 -95.1410 252° West 448 516 38,000  Level FlightAware ADS-B
Wed 02:40:42 AM 40.4310 -95.3350 251° West 38,000  Level FlightAware ADS-B
Wed 02:43:12 AM 40.3220 -95.7490 251° West 446 513 38,000  Level FlightAware ADS-B
Wed 02:43:52 AM 40.3040 -95.8160 251° West 446 513 38,000  Level FlightAware ADS-B
Wed 02:44:27 AM 40.2810 -95.9050 251° West 447 514 38,000  Level FlightAware ADS-B
Wed 02:45:22 AM 40.2450 -96.0400 251° West 447 514 38,000  Level FlightAware ADS-B
Wed 02:46:07 AM 40.1930 -96.2490 252° West 38,000  Level FlightAware ADS-B
Wed 02:46:47 AM 40.1720 -96.3680 257° West 38,000  Level FlightAware ADS-B
Wed 02:47:32 AM 40.1540 -96.4710 257° West 441 507 38,000  Level FlightAware ADS-B
Wed 02:48:17 AM 40.1310 -96.6020 257° West 428 493 38,000  Level FlightAware ADS-B
Wed 02:49:02 AM 40.1180 -96.6750 257° West 426 490 38,000  Level FlightAware ADS-B
Wed 02:50:17 AM 40.0910 -96.8210 256° West 421 484 38,000  Level FlightAware ADS-B
Wed 02:51:07 AM 40.0740 -96.9150 257° West 419 482 38,000  Level FlightAware ADS-B
Wed 02:51:42 AM 40.0590 -96.9970 257° West 419 482 38,000  Level FlightAware ADS-B
Wed 02:52:22 AM 40.0450 -97.0800 258° West 419 482 38,000  Level FlightAware ADS-B
Wed 02:53:22 AM 40.0220 -97.2060 257° West 419 482 38,000  Level FlightAware ADS-B
Wed 02:53:48 AM 39.9103 -97.7889 257° West 419 482 38,000  Level Denver Center
Wed 02:54:38 AM 39.8881 -97.9081 256° West 421 484 38,000  Level Minneapolis Center
Wed 02:55:39 AM 39.8592 -98.0581 256° West 425 489 38,000  Level Minneapolis Center
Wed 02:56:39 AM 39.8294 -98.2086 256° West 427 491 38,000  Level Minneapolis Center
Wed 02:57:39 AM 39.7994 -98.3603 256° West 431 496 38,000  Level Minneapolis Center
Wed 02:58:39 AM 39.7692 -98.5117 255° West 432 497 38,000  Level Minneapolis Center
Wed 02:59:40 AM 39.7386 -98.6631 255° West 432 497 38,000  Level Minneapolis Center
Wed 03:00:42 AM 39.7092 -98.8158 256° West 433 498 38,000  Level Minneapolis Center
Wed 03:01:50 AM 39.6717 -98.9983 255° West 434 499 38,000  Level Denver Center
Wed 03:02:50 AM 39.6403 -99.1517 255° West 437 503 38,000  Level Denver Center
Wed 03:03:51 AM 39.6097 -99.3047 256° West 438 504 38,000  Level Denver Center
Wed 03:04:51 AM 39.5781 -99.4589 255° West 440 506 38,000  Level Denver Center
Wed 03:05:51 AM 39.5453 -99.6108 254° West 439 505 38,000  Level Denver Center
Wed 03:06:52 AM 39.5136 -99.7625 255° West 437 503 38,000  Level Denver Center
Wed 03:07:52 AM 39.4808 -99.9186 255° West 437 503 38,000  Level Denver Center
Wed 03:08:52 AM 39.4492 -100.0622 254° West 434 499 38,000  Level Denver Center
Wed 03:15:09 AM 39.2434 -101.0100 254° West 437 503 38,000  Level FlightAware ADS-B
Wed 03:15:39 AM 39.2265 -101.0850 254° West 438 504 38,000  Level FlightAware ADS-B
Wed 03:16:10 AM 39.2095 -101.1600 254° West 438 504 38,000  Level FlightAware ADS-B
Wed 03:16:40 AM 39.1924 -101.2380 254° West 437 503 38,000  Level FlightAware ADS-B
Wed 03:17:10 AM 39.1754 -101.3130 254° West 438 504 38,000  Level FlightAware ADS-B
Wed 03:17:40 AM 39.1583 -101.3880 254° West 438 504 38,000  Level FlightAware ADS-B
Wed 03:18:10 AM 39.1413 -101.4630 254° West 432 497 38,000  Level FlightAware ADS-B
Wed 03:18:41 AM 39.1240 -101.5380 253° West 421 484 38,000  Level FlightAware ADS-B
Wed 03:19:11 AM 39.1077 -101.6100 254° West 418 481 38,000  Level FlightAware ADS-B
Wed 03:19:36 AM 39.0946 -101.6670 254° West 414 476 38,000  Level FlightAware ADS-B
Wed 03:20:06 AM 39.0784 -101.7370 253° West 411 473 38,000  Level FlightAware ADS-B
Wed 03:20:36 AM 39.0622 -101.8070 253° West 409 471 38,000  Level FlightAware ADS-B
Wed 03:21:06 AM 39.0459 -101.8770 253° West 413 475 38,000  Level FlightAware ADS-B
Wed 03:21:36 AM 39.0294 -101.9480 253° West 414 476 38,000  Level FlightAware ADS-B
Wed 03:22:06 AM 39.0129 -102.0190 253° West 415 478 38,000  Level FlightAware ADS-B
Wed 03:22:37 AM 38.9960 -102.0920 253° West 416 479 38,000  Level FlightAware ADS-B
Wed 03:23:07 AM 38.9793 -102.1630 253° West 417 480 38,000  Level FlightAware ADS-B
Wed 03:23:37 AM 38.9624 -102.2350 253° West 418 481 38,000  Level FlightAware ADS-B
Wed 03:24:07 AM 38.9456 -102.3060 253° West 419 482 38,000  Level FlightAware ADS-B
Wed 03:24:37 AM 38.9285 -102.3800 253° West 421 484 38,000  Level FlightAware ADS-B
Wed 03:25:08 AM 38.9113 -102.4510 253° West 422 486 38,000  Level FlightAware ADS-B
Wed 03:25:38 AM 38.8941 -102.5230 253° West 422 486 38,000  Level FlightAware ADS-B
Wed 03:26:08 AM 38.8769 -102.5950 253° West 422 486 38,000  Level FlightAware ADS-B
Wed 03:26:38 AM 38.8595 -102.6690 253° West 425 489 38,000  Level FlightAware ADS-B
Wed 03:27:08 AM 38.8419 -102.7420 253° West 427 491 38,000  Level FlightAware ADS-B
Wed 03:27:39 AM 38.8243 -102.8140 253° West 428 493 38,000  Level FlightAware ADS-B
Wed 03:28:09 AM 38.8066 -102.8870 253° West 430 495 38,000  Level FlightAware ADS-B
Wed 03:28:39 AM 38.7887 -102.9630 253° West 431 496 38,000  Level FlightAware ADS-B
Wed 03:29:09 AM 38.7708 -103.0360 253° West 431 496 38,000  Level FlightAware ADS-B
Wed 03:29:40 AM 38.7529 -103.1090 253° West 431 496 38,000  Level FlightAware ADS-B
Wed 03:30:10 AM 38.7349 -103.1820 252° West 431 496 38,000  Level FlightAware ADS-B
Wed 03:30:40 AM 38.7171 -103.2550 253° West 428 493 38,000  Level FlightAware ADS-B
Wed 03:31:10 AM 38.6994 -103.3270 253° West 424 488 38,000  Level FlightAware ADS-B
Wed 03:31:40 AM 38.6814 -103.4000 252° West 421 484 38,000  Level FlightAware ADS-B
Wed 03:32:10 AM 38.6636 -103.4720 252° West 419 482 38,000  Level FlightAware ADS-B
Wed 03:32:41 AM 38.6459 -103.5430 252° West 423 487 38,000  Level FlightAware ADS-B
Wed 03:33:11 AM 38.6280 -103.6140 252° West 424 488 38,000  Level FlightAware ADS-B
Wed 03:33:41 AM 38.6102 -103.6860 252° West 425 489 38,000  Level FlightAware ADS-B
Wed 03:34:11 AM 38.5922 -103.7570 252° West 425 489 38,000  Level FlightAware ADS-B
Wed 03:34:41 AM 38.5740 -103.8290 252° West 427 491 38,000  Level FlightAware ADS-B
Wed 03:35:11 AM 38.5556 -103.9040 253° West 430 495 38,000  Level FlightAware ADS-B
Wed 03:35:42 AM 38.5372 -103.9760 252° West 431 496 38,000  Level FlightAware ADS-B
Wed 03:36:12 AM 38.5185 -104.0490 252° West 434 499 38,000  Level FlightAware ADS-B
Wed 03:36:42 AM 38.4999 -104.1220 252° West 436 502 38,000  Level FlightAware ADS-B
Wed 03:37:12 AM 38.4807 -104.1980 252° West 438 504 38,000  Level FlightAware ADS-B
Wed 03:37:43 AM 38.4618 -104.2720 252° West 441 507 38,000  Level FlightAware ADS-B
Wed 03:38:17 AM 38.4402 -104.3560 252° West 442 509 38,000  Level FlightAware ADS-B
Wed 03:38:48 AM 38.4202 -104.4330 252° West 444 511 38,000  Level FlightAware ADS-B
Wed 03:39:19 AM 38.4001 -104.5130 252° West 445 512 38,000  Level FlightAware ADS-B
Wed 03:39:49 AM 38.3805 -104.5880 252° West 447 514 38,000  Level FlightAware ADS-B
Wed 03:40:19 AM 38.3610 -104.6630 252° West 447 514 38,000  Level FlightAware ADS-B
Wed 03:40:54 AM 38.3387 -104.7470 251° West 447 514 38,000  Level FlightAware ADS-B
Wed 03:41:27 AM 38.3170 -104.8320 252° West 444 511 38,000  Level FlightAware ADS-B
Wed 03:41:58 AM 38.2968 -104.9090 252° West 442 509 38,000  Level FlightAware ADS-B
Wed 03:42:28 AM 38.2773 -104.9820 251° West 439 505 38,000  Level FlightAware ADS-B
Wed 03:42:58 AM 38.2579 -105.0550 251° West 436 502 38,000  Level FlightAware ADS-B
Wed 03:43:29 AM 38.2385 -105.1280 251° West 435 501 38,000  Level FlightAware ADS-B
Wed 03:43:59 AM 38.2191 -105.2010 251° West 434 499 38,000  Level FlightAware ADS-B
Wed 03:44:29 AM 38.1997 -105.2750 252° West 433 498 38,000  Level FlightAware ADS-B
Wed 03:45:00 AM 38.1804 -105.3470 251° West 428 493 38,000  Level FlightAware ADS-B
Wed 03:45:30 AM 38.1612 -105.4180 251° West 426 490 38,000  Level FlightAware ADS-B
Wed 03:46:00 AM 38.1421 -105.4890 251° West 426 490 38,000  Level FlightAware ADS-B
Wed 03:46:30 AM 38.1227 -105.5620 251° West 425 489 38,000  Level FlightAware ADS-B
Wed 03:47:00 AM 38.1036 -105.6330 251° West 426 490 38,000  Level FlightAware ADS-B
Wed 03:47:31 AM 38.0840 -105.7040 251° West 425 489 38,000  Level FlightAware ADS-B
Wed 03:48:01 AM 38.0645 -105.7770 251° West 427 491 38,000  Level FlightAware ADS-B
Wed 03:48:34 AM 38.0431 -105.8550 251° West 427 491 38,000  Level FlightAware ADS-B
Wed 03:49:05 AM 38.0235 -105.9260 251° West 428 493 38,000  Level FlightAware ADS-B
Wed 03:49:35 AM 38.0040 -105.9970 251° West 429 494 38,000  Level FlightAware ADS-B
Wed 03:50:08 AM 37.9827 -106.0760 251° West 428 493 38,000  Level FlightAware ADS-B
Wed 03:50:38 AM 37.9628 -106.1460 250° West 428 493 38,000  Level FlightAware ADS-B
Wed 03:51:09 AM 37.9425 -106.2220 251° West 427 491 38,000  Level FlightAware ADS-B
Wed 03:51:39 AM 37.9228 -106.2930 251° West 428 493 38,000  Level FlightAware ADS-B
Wed 03:52:10 AM 37.9026 -106.3660 251° West 428 493 38,000  Level FlightAware ADS-B
Wed 03:52:40 AM 37.8828 -106.4370 251° West 428 493 38,000  Level FlightAware ADS-B
Wed 03:53:12 AM 37.8630 -106.5080 251° West 426 490 38,000  Level FlightAware ADS-B
Wed 03:53:15 AM 37.8595 -106.5190 248° West 428 493 38,000  Level FlightAware ADS-B
Wed 03:53:47 AM 37.8390 -106.5920 250° West 425 489 38,000  Level FlightAware ADS-B
Wed 03:54:26 AM 37.8133 -106.6830 250° West 424 488 38,000  Level FlightAware ADS-B
Wed 03:55:16 AM 37.7801 -106.8030 251° West 426 490 38,000  Level FlightAware ADS-B
Wed 03:55:57 AM 37.7540 -106.8940 250° West 426 490 38,000  Level FlightAware ADS-B
Wed 03:56:42 AM 37.7240 -107.0000 250° West 428 493 38,000  Level FlightAware ADS-B
Wed 03:57:22 AM 37.6970 -107.0940 250° West 429 494 38,000  Level FlightAware ADS-B
Wed 03:58:02 AM 37.6700 -107.1880 250° West 430 495 38,000  Level FlightAware ADS-B
Wed 03:58:47 AM 37.6390 -107.2940 250° West 431 496 38,000  Level FlightAware ADS-B
Wed 03:59:27 AM 37.6120 -107.3890 250° West 434 499 38,000  Level FlightAware ADS-B
Wed 04:00:07 AM 37.5850 -107.4850 250° West 437 503 38,000  Level FlightAware ADS-B
Wed 04:00:52 AM 37.5530 -107.5930 250° West 437 503 38,000  Level FlightAware ADS-B
Wed 04:01:32 AM 37.5250 -107.6890 250° West 438 504 38,000  Level FlightAware ADS-B
Wed 04:02:17 AM 37.4940 -107.7960 250° West 437 503 38,000  Level FlightAware ADS-B
Wed 04:02:57 AM 37.4660 -107.8920 250° West 439 505 38,000  Level FlightAware ADS-B
Wed 04:03:37 AM 37.4380 -107.9870 250° West 437 503 38,000  Level FlightAware ADS-B
Wed 04:04:22 AM 37.4060 -108.0950 250° West 437 503 38,000  Level FlightAware ADS-B
Wed 04:05:02 AM 37.3770 -108.1920 249° West 438 504 38,000  Level FlightAware ADS-B
Wed 04:05:47 AM 37.3450 -108.2970 249° West 438 504 38,000  Level FlightAware ADS-B
Wed 04:06:27 AM 37.3170 -108.3900 249° West 440 506 38,000  Level FlightAware ADS-B
Wed 04:07:07 AM 37.2880 -108.4880 250° West 440 506 38,000  Level FlightAware ADS-B
Wed 04:07:42 AM 37.2640 -108.5670 249° West 439 505 38,000  Level FlightAware ADS-B
Wed 04:08:27 AM 37.2360 -108.6600 249° West 439 505 38,000  Level FlightAware ADS-B
Wed 04:09:07 AM 37.2110 -108.7410 249° West 439 505 38,000  Level FlightAware ADS-B
Wed 04:09:57 AM 37.1800 -108.8420 249° West 439 505 38,000  Level FlightAware ADS-B
Wed 04:10:32 AM 37.2640 -108.5670 69° East 38,000  Level FlightAware ADS-B
Wed 04:10:52 AM 37.1250 -109.0260 249° West 442 509 38,000  Level FlightAware ADS-B
Wed 04:11:32 AM 37.0970 -109.1160 249° West 441 507 38,000  Level FlightAware ADS-B
Wed 04:12:17 AM 37.0620 -109.2290 249° West 441 507 38,000  Level FlightAware ADS-B
Wed 04:12:52 AM 37.0380 -109.3070 249° West 442 509 38,000  Level FlightAware ADS-B
Wed 04:13:37 AM 37.0080 -109.4000 248° West 442 509 38,000  Level FlightAware ADS-B
Wed 04:14:17 AM 36.9820 -109.4810 248° West 442 509 38,000  Level FlightAware ADS-B
Wed 04:14:57 AM 36.9560 -109.5610 248° West 442 509 38,000  Level FlightAware ADS-B
Wed 04:15:47 AM 36.9230 -109.6620 248° West 442 509 38,000  Level FlightAware ADS-B
Wed 04:16:27 AM 36.8970 -109.7430 248° West 442 509 38,000  Level FlightAware ADS-B
Wed 04:17:07 AM 36.8710 -109.8230 248° West 442 509 38,000  Level FlightAware ADS-B
Wed 04:17:47 AM 36.8450 -109.9040 248° West 442 509 38,000  Level FlightAware ADS-B
Wed 04:18:27 AM 36.8190 -109.9840 248° West 442 509 38,000  Level FlightAware ADS-B
Wed 04:19:17 AM 36.7870 -110.0850 248° West 442 509 38,000  Level FlightAware ADS-B
Wed 04:19:57 AM 36.7610 -110.1660 248° West 442 509 38,000  Level FlightAware ADS-B
Wed 04:20:42 AM 36.6890 -110.4080 250° West 437 503 38,000  Level FlightAware ADS-B
Wed 04:21:22 AM 36.6590 -110.5040 249° West 439 505 38,000  Level FlightAware ADS-B
Wed 04:22:07 AM 36.6260 -110.6070 248° West 439 505 38,000  Level FlightAware ADS-B
Wed 04:22:47 AM 36.5940 -110.7030 247° West 439 505 38,000  Level FlightAware ADS-B
Wed 04:23:27 AM 36.5640 -110.7970 248° West 439 505 38,000  Level FlightAware ADS-B
Wed 04:24:07 AM 36.5330 -110.8930 248° West 439 505 38,000  Level FlightAware ADS-B
Wed 04:24:52 AM 36.5000 -110.9940 248° West 440 506 38,000  Level FlightAware ADS-B
Wed 04:25:37 AM 36.4640 -111.1010 247° West 439 505 38,000  Level FlightAware ADS-B
Wed 04:26:17 AM 36.4330 -111.1940 248° West 439 505 38,000  Level FlightAware ADS-B
Wed 04:27:02 AM 36.3990 -111.2970 248° West 438 504 38,000  Level FlightAware ADS-B
Wed 04:27:42 AM 36.3680 -111.3900 248° West 438 504 38,000  Level FlightAware ADS-B
Wed 04:28:22 AM 36.3370 -111.4820 247° West 439 505 38,000  Level FlightAware ADS-B
Wed 04:29:07 AM 36.3000 -111.5890 247° West 440 506 38,000  Level FlightAware ADS-B
Wed 04:29:47 AM 36.2670 -111.6760 245° Southwest 441 507 38,000  Level FlightAware ADS-B
Wed 04:30:27 AM 36.2320 -111.7720 246° West 440 506 38,000  Level FlightAware ADS-B
Wed 04:31:12 AM 36.1950 -111.8730 246° West 439 505 38,000  Level FlightAware ADS-B
Wed 04:31:52 AM 36.1620 -111.9650 246° West 439 505 38,000  Level FlightAware ADS-B
Wed 04:32:37 AM 36.1230 -112.0700 245° Southwest 440 506 38,000  Level FlightAware ADS-B
Wed 04:33:17 AM 36.0890 -112.1620 245° Southwest 438 504 38,000  Level FlightAware ADS-B
Wed 04:34:02 AM 36.0520 -112.2620 245° Southwest 437 503 38,000  Level FlightAware ADS-B
Wed 04:34:42 AM 36.0180 -112.3520 245° Southwest 435 501 38,000  Level FlightAware ADS-B
Wed 04:35:22 AM 35.9850 -112.4420 246° West 435 501 38,000  Level FlightAware ADS-B
Wed 04:36:07 AM 35.9450 -112.5460 245° Southwest 434 499 38,000  Level FlightAware ADS-B
Wed 04:36:47 AM 35.9110 -112.6380 245° Southwest 435 501 38,000  Level FlightAware ADS-B
Wed 04:37:32 AM 35.8740 -112.7370 245° Southwest 435 501 38,000  Level FlightAware ADS-B
Wed 04:38:12 AM 35.8410 -112.8250 245° Southwest 435 501 38,000  Level FlightAware ADS-B
Wed 04:38:52 AM 35.8070 -112.9140 245° Southwest 435 501 38,000  Level FlightAware ADS-B
Wed 04:39:32 AM 35.7730 -113.0040 245° Southwest 434 499 38,000  Level FlightAware ADS-B
Wed 04:40:17 AM 35.7330 -113.1070 244° Southwest 434 499 38,000  Level FlightAware ADS-B
Wed 04:40:57 AM 35.6990 -113.1970 245° Southwest 434 499 38,000  Level FlightAware ADS-B
Wed 04:41:42 AM 35.6610 -113.2950 245° Southwest 436 502 38,000  Level FlightAware ADS-B
Wed 04:42:22 AM 35.6260 -113.3870 245° Southwest 437 503 38,000  Level FlightAware ADS-B
Wed 04:43:07 AM 35.5870 -113.4880 245° Southwest 437 503 38,000  Level FlightAware ADS-B
Wed 04:43:47 AM 35.5530 -113.5780 245° Southwest 437 503 38,000  Level FlightAware ADS-B
Wed 04:44:27 AM 35.5180 -113.6670 244° Southwest 435 501 38,000  Level FlightAware ADS-B
Wed 04:45:12 AM 35.4800 -113.7630 244° Southwest 435 501 38,000  Level FlightAware ADS-B
Wed 04:45:52 AM 35.4440 -113.8570 245° Southwest 437 503 38,000  Level FlightAware ADS-B
Wed 04:46:37 AM 35.4040 -113.9580 244° Southwest 437 503 38,000  Level FlightAware ADS-B
Wed 04:47:17 AM 35.3700 -114.0450 244° Southwest 438 504 38,000  Level FlightAware ADS-B
Wed 04:47:57 AM 35.3350 -114.1340 244° Southwest 436 502 38,000  Level FlightAware ADS-B
Wed 04:48:42 AM 35.2950 -114.2340 244° Southwest 436 502 38,000  Level FlightAware ADS-B
Wed 04:49:22 AM 35.2610 -114.3230 245° Southwest 436 502 38,000  Level FlightAware ADS-B
Wed 04:49:57 AM 35.2300 -114.4000 244° Southwest 434 499 38,000  Level FlightAware ADS-B
Wed 04:50:47 AM 35.1860 -114.5110 244° Southwest 435 501 38,000  Level FlightAware ADS-B
Wed 04:51:32 AM 35.1440 -114.6150 244° Southwest 433 498 38,000  Level FlightAware ADS-B
Wed 04:52:12 AM 35.1100 -114.7000 244° Southwest 433 498 38,000  Level FlightAware ADS-B
Wed 04:52:52 AM 35.0740 -114.7900 244° Southwest 433 498 38,000  Level FlightAware ADS-B
Wed 04:53:37 AM 35.0360 -114.8850 244° Southwest 432 497 38,000  Level FlightAware ADS-B
Wed 04:54:17 AM 35.0000 -114.9720 243° Southwest 427 491 38,000  Level FlightAware ADS-B
Wed 04:54:57 AM 34.9660 -115.0580 244° Southwest 425 489 38,000  Level FlightAware ADS-B
Wed 04:55:42 AM 34.9260 -115.1570 244° Southwest 423 487 38,000  Level FlightAware ADS-B
Wed 04:56:22 AM 34.8910 -115.2420 243° Southwest 421 484 38,000  Level FlightAware ADS-B
Wed 04:57:07 AM 34.8520 -115.3350 243° Southwest 420 483 38,000  Level FlightAware ADS-B
Wed 04:57:47 AM 34.8170 -115.4220 244° Southwest 418 481 38,000  Level FlightAware ADS-B
Wed 04:58:32 AM 34.7790 -115.5170 244° Southwest 418 481 38,000  Level FlightAware ADS-B
Wed 04:59:12 AM 34.7440 -115.6010 243° Southwest 417 480 38,000  Level FlightAware ADS-B
Wed 04:59:52 AM 34.7100 -115.6820 243° Southwest 416 479 38,000  Level FlightAware ADS-B
Wed 05:00:37 AM 34.6710 -115.7760 243° Southwest 415 478 38,000  Level FlightAware ADS-B
Wed 05:01:17 AM 34.6370 -115.8590 244° Southwest 414 476 38,000  Level FlightAware ADS-B
Wed 05:02:02 AM 34.5970 -115.9540 243° Southwest 409 471 38,000  Level FlightAware ADS-B
Wed 05:02:42 AM 34.5630 -116.0360 243° Southwest 407 468 38,000  Level FlightAware ADS-B
Wed 05:03:22 AM 34.5290 -116.1180 243° Southwest 407 468 38,000 -353 Level FlightAware ADS-B
Wed 05:04:07 AM 34.4910 -116.2080 243° Southwest 412 474 37,500 -1,835 Descending FlightAware ADS-B
Wed 05:04:47 AM 34.4560 -116.2920 243° Southwest 419 482 35,400 -3,176 Descending FlightAware ADS-B
Wed 05:05:32 AM 34.4160 -116.3870 243° Southwest 417 480 33,000 -2,965 Descending FlightAware ADS-B
Wed 05:06:12 AM 34.3810 -116.4710 243° Southwest 405 466 31,200 -2,550 Descending FlightAware ADS-B
Wed 05:06:52 AM 34.3480 -116.5480 243° Southwest 390 449 29,600 -2,329 Descending FlightAware ADS-B
Wed 05:07:37 AM 34.3120 -116.6320 243° Southwest 373 429 27,900 -2,188 Descending FlightAware ADS-B
Wed 05:08:17 AM 34.2810 -116.7050 243° Southwest 360 414 26,500 -2,188 Descending FlightAware ADS-B
Wed 05:09:02 AM 34.2470 -116.7850 243° Southwest 347 399 24,800 -2,259 Descending FlightAware ADS-B
Wed 05:09:42 AM 34.2170 -116.8550 243° Southwest 354 407 23,300 -2,250 Descending FlightAware ADS-B
Wed 05:10:22 AM 34.1870 -116.9260 243° Southwest 362 417 21,800 -2,188 Descending FlightAware ADS-B
Wed 05:11:07 AM 34.1530 -117.0040 242° Southwest 352 405 20,200 -2,188 Descending FlightAware ADS-B
Wed 05:11:47 AM 34.1230 -117.0750 243° Southwest 346 398 18,700 -1,875 Descending FlightAware ADS-B
Wed 05:12:27 AM 34.0930 -117.1420 242° Southwest 351 404 17,700 -1,341 Descending FlightAware ADS-B
Wed 05:13:12 AM 34.0580 -117.2200 242° Southwest 340 391 16,800 -1,059 Descending FlightAware ADS-B
Wed 05:13:52 AM 34.0430 -117.2930 256° West 336 387 16,200 -847 Descending FlightAware ADS-B
Wed 05:14:37 AM 34.0360 -117.3740 264° West 328 377 15,600 -847 Descending FlightAware ADS-B
Wed 05:15:17 AM 34.0290 -117.4480 264° West 332 382 15,000 -918 Descending FlightAware ADS-B
Wed 05:16:02 AM 34.0220 -117.5310 264° West 326 375 14,300 -847 Descending FlightAware ADS-B
Wed 05:16:42 AM 34.0150 -117.6030 263° West 325 374 13,800 -635 Descending FlightAware ADS-B
Wed 05:17:27 AM 34.0080 -117.6830 264° West 325 374 13,400 -353 Descending FlightAware ADS-B
Wed 05:18:07 AM 34.0010 -117.7550 263° West 325 374 13,300 -150 Descending FlightAware ADS-B
Wed 05:18:47 AM 33.9940 -117.8250 263° West 326 375 13,200 -212 Descending FlightAware ADS-B
Wed 05:19:32 AM 33.9860 -117.9100 264° West 326 375 13,000 -212 Descending FlightAware ADS-B
Wed 05:20:12 AM 33.9780 -117.9820 262° West 328 377 12,900 -675 Descending FlightAware ADS-B
Wed 05:20:52 AM 33.9710 -118.0560 264° West 320 368 12,100 -1,440 Descending FlightAware ADS-B
Wed 05:21:27 AM 33.9660 -118.1160 264° West 315 362 11,100 -1,246 Descending FlightAware ADS-B
Wed 05:23:02 AM 33.9840 -118.2650 278° West 268 308 9,400 -1,129 Descending FlightAware ADS-B
Wed 05:24:17 AM 34.0000 -118.3790 280° West 261 300 7,900 -836 Descending FlightAware ADS-B
Wed 05:25:47 AM 34.0050 -118.5080 273° West 246 283 7,100 -800 Descending FlightAware ADS-B
Wed 05:26:17 AM 34.0040 -118.5490 268° West 243 280 6,300 -1,650 Descending FlightAware ADS-B
Wed 05:26:27 AM 34.0050 -118.5630 275° West 242 278 6,000 -1,600 Descending FlightAware ADS-B
Wed 05:26:47 AM 34.0070 -118.5890 275° West 241 277 5,500 -1,029 Descending FlightAware ADS-B
Wed 05:27:37 AM 34.0010 -118.6470 263° West 219 252 4,800 -923 Descending FlightAware ADS-B
Wed 05:27:52 AM 33.9880 -118.6570 213° Southwest 216 249 4,500 -1,200 Descending FlightAware ADS-B
Wed 05:28:07 AM 33.9740 -118.6570 180° South 213 245 4,200 -933 Descending FlightAware ADS-B
Wed 05:28:37 AM 33.9460 -118.6510 170° South 191 220 3,800 -900 Descending FlightAware ADS-B
Wed 05:28:47 AM 33.9370 -118.6440 147° Southeast 190 219 3,600 -1,200 Descending FlightAware ADS-B
Wed 05:29:02 AM 33.9310 -118.6300 117° Southeast 190 219 3,300 -1,200 Descending FlightAware ADS-B
Wed 05:29:17 AM 33.9290 -118.6140 99° East 192 221 3,000 -1,200 Descending FlightAware ADS-B
Wed 05:29:47 AM 33.9320 -118.5800 84° East 186 214 2,400 -1,091 Descending FlightAware ADS-B
Wed 05:30:12 AM 33.9340 -118.5560 84° East 175 201 2,000 -840 Descending FlightAware ADS-B
Wed 05:30:37 AM 33.9370 -118.5330 81° East 161 185 1,700 -857 Descending FlightAware ADS-B
Wed 05:30:47 AM 33.9380 -118.5210 84° East 159 183 1,500 -545 Descending FlightAware ADS-B
Wed 05:31:32 AM 33.9420 -118.4870 82° East 152 175 1,200 -780 Descending FlightAware ADS-B
Wed 05:32:27 AM 33.9464 -118.4400 82° East 154 177 200 -569 Descending Los Angeles Center
Wed 05:33:28 AM 33.9517 -118.3931 82° East 153 176 100 -98 Descending Los Angeles Center
Wed 05:35:00 AM 33.9333 -118.4000 112° Southeast  Level FlightAware Approximate

Login

Don't have an account? Register now (free) for customized features, flight alerts, and more!